Archival Weather

Tokyo Intl

Tokyo, Japan (RJTT)

Report from: Saturday, March 18, 2023 12:00 PM JST
Current time: Sunday, July 14, 2024 9:29 AM JST

Current weather – Weather history – Daily summaries
Weather forecast

Present weatherLight rain
Temperature10.0°C (50.0°F)
Wind chill6.9°C (44.4°F)
Dew point8.0°C (46.4°F)
Winds 14 kts (7.2 m/s, 16.1 mph) North (360°)
Visibility6.2 mi. (10 km)
Clouds Few clouds 500 ft. (152 m)
Ceiling: Broken clouds 800 ft. (244 m)
Broken clouds 1,700 ft. (518 m)
Altimeter29.88 in.Hg (1012 mB)
Precip. events Began 2:18 PM
Relative humidity87 %
Density altitude-402 ft. (-123 m)
Remarks No significant changes expected in the next two hours
And
Flight conditions Instrument Meteorological Conditions
Raw dataRJTT 180300Z 36014KT 9999 -RA FEW005 BKN008 BKN017 10/08 Q1012 NOSIG RMK 1ST005 5ST008 7SC017 A2988 MOD TURB OBS AT 0230Z AROUND OSHIMA BTN FL170 AND FL150 IN DES BY B738
An error has occurred. This application may no longer respond until reloaded. Reload 🗙